createdAt,value
2023-03-25T00:01:15.462Z,51.49
2023-03-25T00:03:46.784Z,51.27
2023-03-25T00:06:14.075Z,51.17
2023-03-25T00:08:41.003Z,52.24
2023-03-25T00:11:08.533Z,51.46
2023-03-25T00:13:38.275Z,51.13
2023-03-25T00:16:07.169Z,51.50
2023-03-25T00:18:34.000Z,51.04
2023-03-25T00:21:03.205Z,51.01
2023-03-25T00:23:32.181Z,51.10
2023-03-25T00:26:00.553Z,50.65
2023-03-25T00:28:30.900Z,51.44
2023-03-25T00:31:06.420Z,50.68
2023-03-25T00:33:35.633Z,51.50
2023-03-25T00:36:04.762Z,50.76
2023-03-25T00:38:35.595Z,51.53
2023-03-25T00:41:10.016Z,51.23
2023-03-25T00:43:37.559Z,51.98
2023-03-25T00:46:05.559Z,52.93
2023-03-25T00:48:32.649Z,52.33
2023-03-25T00:51:07.388Z,52.81
2023-03-25T00:53:35.834Z,52.74
2023-03-25T00:56:04.534Z,53.02
2023-03-25T00:58:31.778Z,53.33
2023-03-25T01:00:59.708Z,53.01
2023-03-25T01:03:29.452Z,53.57
2023-03-25T01:05:58.102Z,54.03
2023-03-25T01:08:25.705Z,53.46
2023-03-25T01:10:54.548Z,54.26
2023-03-25T01:13:23.001Z,53.58
2023-03-25T01:15:51.342Z,54.10
2023-03-25T01:18:18.390Z,53.87
2023-03-25T01:20:45.369Z,53.42
2023-03-25T01:23:12.187Z,53.80
2023-03-25T01:25:39.673Z,54.44
2023-03-25T01:28:07.291Z,55.05
2023-03-25T01:30:35.644Z,54.85
2023-03-25T01:33:02.865Z,55.35
2023-03-25T01:35:30.194Z,58.17
2023-03-25T01:38:01.183Z,59.93
2023-03-25T01:40:29.768Z,62.44
2023-03-25T01:42:57.221Z,64.33
2023-03-25T01:45:35.204Z,65.82
2023-03-25T01:48:10.273Z,66.76
2023-03-25T01:50:41.253Z,65.04
2023-03-25T01:53:10.156Z,65.46
2023-03-25T01:55:38.474Z,66.34
2023-03-25T01:58:12.172Z,66.82
2023-03-25T02:00:45.495Z,65.78
2023-03-25T02:03:16.656Z,65.26
2023-03-25T02:05:59.036Z,62.83
2023-03-25T02:08:26.258Z,62.62
2023-03-25T02:10:53.874Z,61.80
2023-03-25T02:13:22.387Z,60.63
2023-03-25T02:16:31.742Z,59.59
2023-03-25T02:19:18.000Z,59.10
2023-03-25T02:22:12.152Z,59.21
2023-03-25T02:25:04.175Z,59.32
2023-03-25T02:27:51.958Z,58.25
2023-03-25T02:30:42.512Z,58.95
2023-03-25T02:33:11.666Z,59.70
2023-03-25T02:36:12.239Z,58.94
2023-03-25T02:38:48.654Z,58.42
2023-03-25T02:41:41.991Z,57.55
2023-03-25T02:44:24.054Z,56.84
2023-03-25T02:46:59.540Z,56.19
2023-03-25T02:49:53.501Z,56.53
2023-03-25T02:52:24.586Z,56.74
2023-03-25T02:54:58.192Z,56.30
2023-03-25T02:57:31.316Z,55.16
2023-03-25T03:00:00.117Z,55.52
2023-03-25T03:02:34.276Z,56.21
2023-03-25T03:05:01.872Z,55.80
2023-03-25T03:07:42.717Z,55.77
2023-03-25T03:10:26.892Z,56.05
2023-03-25T03:13:19.229Z,55.74
2023-03-25T03:15:51.187Z,55.69
2023-03-25T03:18:38.328Z,55.79
2023-03-25T03:21:24.139Z,56.44
2023-03-25T03:23:58.225Z,55.94
2023-03-25T03:26:34.251Z,55.82
2023-03-25T03:29:21.156Z,55.21
2023-03-25T03:32:07.387Z,54.82
2023-03-25T03:35:19.079Z,54.82
2023-03-25T03:37:52.821Z,55.23
2023-03-25T03:40:23.504Z,55.50
2023-03-25T03:42:53.804Z,55.57
2023-03-25T03:45:58.138Z,55.68
2023-03-25T03:48:53.412Z,56.94
2023-03-25T03:54:58.821Z,57.20
2023-03-25T03:57:56.689Z,56.70
2023-03-25T04:00:55.080Z,55.91
2023-03-25T04:05:12.763Z,55.88
2023-03-25T04:08:31.315Z,56.05
2023-03-25T04:11:44.358Z,55.12
2023-03-25T04:14:48.016Z,55.65
2023-03-25T04:17:39.622Z,56.24
2023-03-25T04:20:15.375Z,56.28
2023-03-25T04:22:46.068Z,56.05
2023-03-25T04:25:14.492Z,56.04
2023-03-25T04:27:41.742Z,55.57
2023-03-25T04:30:10.057Z,55.46
2023-03-25T04:32:37.644Z,55.86
2023-03-25T04:35:09.912Z,55.62
2023-03-25T04:37:38.379Z,55.65
2023-03-25T04:40:09.787Z,56.31
2023-03-25T04:42:37.693Z,56.02
2023-03-25T04:45:13.724Z,55.60
2023-03-25T04:47:47.596Z,55.39
2023-03-25T04:50:28.186Z,55.81
2023-03-25T04:53:03.232Z,56.00
2023-03-25T04:55:31.598Z,55.67
2023-03-25T04:58:00.008Z,55.51
2023-03-25T05:00:28.085Z,55.28
2023-03-25T05:02:56.672Z,55.88
2023-03-25T05:05:26.142Z,56.75
2023-03-25T05:07:55.585Z,58.01
2023-03-25T05:10:24.817Z,57.76
2023-03-25T05:13:06.853Z,58.19
2023-03-25T05:15:39.656Z,58.83
2023-03-25T05:18:13.920Z,59.25
2023-03-25T05:20:43.834Z,59.04
2023-03-25T05:23:20.135Z,58.99
2023-03-25T05:25:52.229Z,57.92
2023-03-25T05:28:20.149Z,57.86
2023-03-25T05:30:50.374Z,57.54
2023-03-25T05:33:23.602Z,57.47
2023-03-25T05:35:51.579Z,57.03
2023-03-25T05:38:19.140Z,57.76
2023-03-25T05:40:51.195Z,56.54
2023-03-25T05:43:23.301Z,56.60
2023-03-25T05:45:56.659Z,57.17
2023-03-25T05:48:27.498Z,56.47
2023-03-25T05:50:57.003Z,56.48
2023-03-25T05:53:25.869Z,55.88
2023-03-25T05:55:54.307Z,55.50
2023-03-25T05:58:22.840Z,55.77
2023-03-25T06:00:50.512Z,55.88
2023-03-25T06:03:22.794Z,55.28
2023-03-25T06:05:54.159Z,55.03
2023-03-25T06:08:26.662Z,54.59
2023-03-25T06:11:01.113Z,53.58
2023-03-25T06:13:37.499Z,54.18
2023-03-25T06:16:10.182Z,54.13
2023-03-25T06:18:41.621Z,53.48
2023-03-25T06:21:14.699Z,53.11
2023-03-25T06:23:43.185Z,53.71
2023-03-25T06:26:14.098Z,53.25
2023-03-25T06:28:46.422Z,53.16
2023-03-25T06:31:19.225Z,52.98
2023-03-25T06:33:48.707Z,53.66
2023-03-25T06:36:19.079Z,53.02
2023-03-25T06:38:48.598Z,53.24
2023-03-25T06:41:21.561Z,52.98
2023-03-25T06:43:56.246Z,53.25
2023-03-25T06:46:46.971Z,52.65
2023-03-25T06:49:24.944Z,52.52
2023-03-25T06:51:55.765Z,51.99
2023-03-25T06:54:23.420Z,52.12
2023-03-25T06:56:50.973Z,52.03
2023-03-25T06:59:18.315Z,51.89
2023-03-25T07:01:48.420Z,51.91
2023-03-25T07:04:19.702Z,51.46
2023-03-25T07:06:46.893Z,51.72
2023-03-25T07:09:17.105Z,51.95
2023-03-25T07:11:44.571Z,51.68
2023-03-25T07:14:11.946Z,51.74
2023-03-25T07:16:39.337Z,51.15
2023-03-25T07:19:06.822Z,50.48
2023-03-25T07:21:40.466Z,50.13
2023-03-25T07:24:08.036Z,50.02
2023-03-25T07:26:38.212Z,49.57
2023-03-25T07:29:06.743Z,49.69
2023-03-25T07:31:37.426Z,48.44
2023-03-25T07:34:05.961Z,49.43
2023-03-25T07:36:33.192Z,49.50
2023-03-25T07:39:00.443Z,48.93
2023-03-25T07:41:27.409Z,48.89
2023-03-25T07:44:20.416Z,48.89
2023-03-25T07:46:49.680Z,49.31
2023-03-25T07:49:20.328Z,49.22
2023-03-25T07:51:49.400Z,48.67
2023-03-25T07:54:16.751Z,47.86
2023-03-25T07:56:43.794Z,47.45
2023-03-25T07:59:10.770Z,47.10
2023-03-25T08:01:38.042Z,46.09
2023-03-25T08:04:05.348Z,45.74
2023-03-25T08:06:32.456Z,45.69
2023-03-25T08:08:59.589Z,45.56
2023-03-25T08:11:26.899Z,45.79
2023-03-25T08:13:53.740Z,45.64
2023-03-25T08:16:21.338Z,46.50
2023-03-25T08:18:48.882Z,46.73
2023-03-25T08:21:16.683Z,47.44
2023-03-25T08:23:44.714Z,47.15
2023-03-25T08:26:11.472Z,46.51
2023-03-25T08:28:38.188Z,46.17
2023-03-25T08:31:08.572Z,44.25
2023-03-25T08:33:39.666Z,44.38
2023-03-25T08:36:10.170Z,44.84
2023-03-25T08:38:37.130Z,44.66
2023-03-25T08:41:05.545Z,43.64
2023-03-25T08:43:32.348Z,43.91
2023-03-25T08:45:59.039Z,42.57
2023-03-25T08:48:26.192Z,42.14
2023-03-25T08:50:53.494Z,41.24
2023-03-25T08:53:20.579Z,41.21
2023-03-25T08:55:50.609Z,41.86
2023-03-25T08:58:18.261Z,41.83
2023-03-25T09:00:45.838Z,41.33
2023-03-25T09:03:13.444Z,40.23
2023-03-25T09:05:41.093Z,40.63
2023-03-25T09:08:09.962Z,39.13
2023-03-25T09:10:38.244Z,37.77
2023-03-25T09:13:05.038Z,37.19
2023-03-25T09:15:32.373Z,38.00
2023-03-25T09:17:59.317Z,39.04
2023-03-25T09:20:26.671Z,39.64
2023-03-25T09:22:53.500Z,41.13
2023-03-25T09:25:20.613Z,42.81
2023-03-25T09:27:47.445Z,43.43
2023-03-25T09:30:15.527Z,43.18
2023-03-25T09:32:42.358Z,43.24
2023-03-25T09:35:09.414Z,41.90
2023-03-25T09:37:36.454Z,41.89
2023-03-25T09:40:05.338Z,37.60
2023-03-25T09:42:44.201Z,34.67
2023-03-25T09:45:26.650Z,35.73
2023-03-25T09:48:16.061Z,38.24
2023-03-25T09:50:44.225Z,38.11
2023-03-25T09:53:11.273Z,37.72
2023-03-25T09:55:44.861Z,37.76
2023-03-25T09:58:31.889Z,38.38
2023-03-25T10:01:19.323Z,38.03
2023-03-25T10:04:11.331Z,38.85
2023-03-25T10:06:51.732Z,40.28
2023-03-25T10:09:18.554Z,40.48
2023-03-25T10:12:00.502Z,39.08
2023-03-25T10:14:52.815Z,39.87
2023-03-25T10:17:42.700Z,41.11
2023-03-25T10:20:18.562Z,41.42
2023-03-25T10:23:06.524Z,41.74
2023-03-25T10:25:38.412Z,41.66
2023-03-25T10:28:08.839Z,41.68
2023-03-25T10:30:43.049Z,38.28
2023-03-25T10:33:41.722Z,38.26
2023-03-25T10:36:28.445Z,38.35
2023-03-25T10:38:55.683Z,39.53
2023-03-25T10:41:39.411Z,39.09
2023-03-25T10:44:27.408Z,40.14
2023-03-25T10:47:12.757Z,41.22
2023-03-25T10:49:41.845Z,41.25
2023-03-25T10:52:09.905Z,40.92
2023-03-25T10:54:44.399Z,42.94
2023-03-25T10:57:20.321Z,43.75
2023-03-25T11:00:26.829Z,45.99
2023-03-25T11:02:56.323Z,46.76
2023-03-25T11:05:27.992Z,51.36
2023-03-25T11:08:18.057Z,52.80
2023-03-25T11:10:51.673Z,52.36
2023-03-25T11:13:22.130Z,51.72
2023-03-25T11:15:50.221Z,50.49
2023-03-25T11:18:28.503Z,46.62
2023-03-25T11:21:13.005Z,42.62
2023-03-25T11:23:47.835Z,35.14
2023-03-25T11:26:27.884Z,32.88
2023-03-25T11:29:02.114Z,30.87
2023-03-25T11:31:34.045Z,31.76
2023-03-25T11:34:16.435Z,31.77
2023-03-25T11:37:04.676Z,33.90
2023-03-25T11:39:42.509Z,37.34
2023-03-25T11:42:11.430Z,39.15
2023-03-25T11:44:38.246Z,39.21
2023-03-25T11:47:09.581Z,33.79
2023-03-25T11:49:42.660Z,27.53
2023-03-25T11:52:18.881Z,24.24
2023-03-25T11:54:47.731Z,22.19
2023-03-25T11:57:31.545Z,20.48
2023-03-25T12:00:17.353Z,19.97
2023-03-25T12:02:44.623Z,17.88
2023-03-25T12:05:14.431Z,17.41
2023-03-25T12:07:51.947Z,17.05
2023-03-25T12:10:48.155Z,17.41
2023-03-25T12:13:41.086Z,16.87
2023-03-25T12:16:18.723Z,16.32
2023-03-25T12:19:10.207Z,15.30
2023-03-25T12:22:01.461Z,15.62
2023-03-25T12:24:58.580Z,17.19
2023-03-25T12:27:59.868Z,19.95
2023-03-25T12:30:53.008Z,20.75
2023-03-25T12:33:22.764Z,20.38
2023-03-25T12:36:31.674Z,23.97
2023-03-25T12:39:35.605Z,26.23
2023-03-25T12:42:28.791Z,26.97
2023-03-25T12:45:01.686Z,26.74
2023-03-25T12:47:42.757Z,27.42
2023-03-25T12:50:45.889Z,28.95
2023-03-25T12:53:55.685Z,28.99
2023-03-25T12:56:50.555Z,30.85
2023-03-25T12:59:50.261Z,31.60
2023-03-25T13:02:32.499Z,31.59
2023-03-25T13:05:12.414Z,31.68
2023-03-25T13:07:42.556Z,32.23
2023-03-25T13:10:19.799Z,32.23
2023-03-25T13:12:59.109Z,31.88
2023-03-25T13:15:30.198Z,31.77
2023-03-25T13:18:18.757Z,32.10
2023-03-25T13:20:52.243Z,32.54
2023-03-25T13:23:23.649Z,33.06
2023-03-25T13:26:02.361Z,32.71
2023-03-25T13:28:38.693Z,32.80
2023-03-25T13:31:17.133Z,33.91
2023-03-25T13:33:51.733Z,33.63
2023-03-25T13:36:28.090Z,33.67
2023-03-25T13:39:09.340Z,34.48
2023-03-25T13:41:44.828Z,33.51
2023-03-25T13:44:22.091Z,33.56
2023-03-25T13:46:58.822Z,33.49
2023-03-25T13:49:42.321Z,33.42
2023-03-25T13:52:09.788Z,33.56
2023-03-25T13:54:49.275Z,31.07
2023-03-25T13:57:37.874Z,30.56
2023-03-25T14:00:12.434Z,31.23
2023-03-25T14:03:09.904Z,30.76
2023-03-25T14:06:08.829Z,30.50
2023-03-25T14:08:54.857Z,30.09
2023-03-25T14:11:21.759Z,29.90
2023-03-25T14:13:56.367Z,29.95
2023-03-25T14:16:35.263Z,30.06
2023-03-25T14:19:25.453Z,30.32
2023-03-25T14:21:58.023Z,30.77
2023-03-25T14:24:32.826Z,30.12
2023-03-25T14:27:29.945Z,30.09
2023-03-25T14:30:25.074Z,30.11
2023-03-25T14:32:55.146Z,30.08
2023-03-25T14:35:31.721Z,29.11
2023-03-25T14:38:11.784Z,29.55
2023-03-25T14:40:55.459Z,29.73
2023-03-25T14:43:46.375Z,29.63
2023-03-25T14:46:14.428Z,29.31
2023-03-25T14:48:49.234Z,29.09
2023-03-25T14:51:43.971Z,29.19
2023-03-25T14:54:21.132Z,29.63
2023-03-25T14:57:01.905Z,29.20
2023-03-25T14:59:50.213Z,29.77
2023-03-25T15:02:26.970Z,29.41
2023-03-25T15:04:57.240Z,29.34
2023-03-25T15:07:46.200Z,29.20
2023-03-25T15:10:51.374Z,30.01
2023-03-25T15:13:46.675Z,29.11
2023-03-25T15:16:27.760Z,28.83
2023-03-25T15:18:54.536Z,29.42
2023-03-25T15:21:24.613Z,29.68
2023-03-25T15:23:53.835Z,29.54
2023-03-25T15:26:40.284Z,29.77
2023-03-25T15:29:44.409Z,29.52
2023-03-25T15:32:38.440Z,30.02
2023-03-25T15:35:30.593Z,29.30
2023-03-25T15:38:07.914Z,29.98
2023-03-25T15:41:00.624Z,29.87
2023-03-25T15:44:03.949Z,29.09
2023-03-25T15:46:34.046Z,29.19
2023-03-25T15:49:40.365Z,28.86
2023-03-25T15:52:16.490Z,29.27
2023-03-25T15:54:57.026Z,29.80
2023-03-25T15:57:30.381Z,30.25
2023-03-25T16:00:24.538Z,30.92
2023-03-25T16:02:59.600Z,31.16
2023-03-25T16:05:27.095Z,31.08
2023-03-25T16:07:56.261Z,30.52
2023-03-25T16:10:33.296Z,30.71
2023-03-25T16:13:03.616Z,30.89
2023-03-25T16:15:33.273Z,30.58
2023-03-25T16:18:02.517Z,30.52
2023-03-25T16:20:32.077Z,30.60
2023-03-25T16:23:00.864Z,31.29
2023-03-25T16:25:35.614Z,32.32
2023-03-25T16:28:14.853Z,32.06
2023-03-25T16:30:44.114Z,31.98
2023-03-25T16:33:13.827Z,32.65
2023-03-25T16:35:47.199Z,33.14
2023-03-25T16:38:21.986Z,32.92
2023-03-25T16:40:50.372Z,32.98
2023-03-25T16:43:23.976Z,32.92
2023-03-25T16:45:52.840Z,33.45
2023-03-25T16:48:25.552Z,33.38
2023-03-25T16:50:54.443Z,33.25
2023-03-25T16:53:22.874Z,33.80
2023-03-25T16:55:56.610Z,33.29
2023-03-25T16:58:27.121Z,33.54
2023-03-25T17:00:55.685Z,33.19
2023-03-25T17:03:44.712Z,33.13
2023-03-25T17:06:20.139Z,33.82
2023-03-25T17:08:52.699Z,34.04
2023-03-25T17:11:20.991Z,33.72
2023-03-25T17:13:52.269Z,33.89
2023-03-25T17:16:24.692Z,34.16
2023-03-25T17:18:55.452Z,34.31
2023-03-25T17:21:31.186Z,34.55
2023-03-25T17:24:00.842Z,34.79
2023-03-25T17:26:32.213Z,35.03
2023-03-25T17:29:03.030Z,35.53
2023-03-25T17:31:30.633Z,35.45
2023-03-25T17:34:04.048Z,36.24
2023-03-25T17:36:34.433Z,36.28
2023-03-25T17:39:04.097Z,36.68
2023-03-25T17:41:38.663Z,36.68
2023-03-25T17:44:06.142Z,36.63
2023-03-25T17:46:34.140Z,37.04
2023-03-25T17:49:00.964Z,37.02
2023-03-25T17:51:30.582Z,38.94
2023-03-25T17:53:57.677Z,40.43
2023-03-25T17:56:27.559Z,42.22
2023-03-25T17:58:59.921Z,44.52
2023-03-25T18:01:27.957Z,48.39
2023-03-25T18:03:55.871Z,52.46
2023-03-25T18:06:23.674Z,55.54
2023-03-25T18:08:50.873Z,54.96
2023-03-25T18:11:19.543Z,56.27
2023-03-25T18:13:47.855Z,56.26
2023-03-25T18:16:20.571Z,54.80
2023-03-25T18:18:47.575Z,55.01
2023-03-25T18:21:16.744Z,54.63
2023-03-25T18:23:48.593Z,53.98
2023-03-25T18:26:18.311Z,53.33
2023-03-25T18:28:45.570Z,53.29
2023-03-25T18:31:17.755Z,53.25
2023-03-25T18:33:48.372Z,53.50
2023-03-25T18:36:15.836Z,53.30
2023-03-25T18:38:46.371Z,52.99
2023-03-25T18:41:14.926Z,53.23
2023-03-25T18:43:42.377Z,53.11
2023-03-25T18:46:14.358Z,53.24
2023-03-25T18:48:41.839Z,53.76
2023-03-25T18:51:15.780Z,53.21
2023-03-25T18:53:42.661Z,53.10
2023-03-25T18:56:09.685Z,53.26
2023-03-25T18:58:36.765Z,52.44
2023-03-25T19:01:08.876Z,52.57
2023-03-25T19:03:39.145Z,52.37
2023-03-25T19:06:12.409Z,52.00
2023-03-25T19:08:40.592Z,52.58
2023-03-25T19:11:19.199Z,51.94
2023-03-25T19:13:49.061Z,51.79
2023-03-25T19:16:16.141Z,51.54
2023-03-25T19:18:42.999Z,51.11
2023-03-25T19:21:14.099Z,51.81
2023-03-25T19:23:41.873Z,51.96
2023-03-25T19:26:08.753Z,52.46
2023-03-25T19:28:35.521Z,51.68
2023-03-25T19:31:02.568Z,51.55
2023-03-25T19:33:31.732Z,51.43
2023-03-25T19:36:01.956Z,52.18
2023-03-25T19:38:30.106Z,53.08
2023-03-25T19:41:09.410Z,52.87
2023-03-25T19:43:36.445Z,53.02
2023-03-25T19:46:05.678Z,52.56
2023-03-25T19:48:33.145Z,52.87
2023-03-25T19:51:00.209Z,53.80
2023-03-25T19:53:28.596Z,52.89
2023-03-25T19:55:58.909Z,53.20
2023-03-25T19:58:25.677Z,53.16
2023-03-25T20:00:53.051Z,52.55
2023-03-25T20:03:23.945Z,52.66
2023-03-25T20:05:57.043Z,52.96
2023-03-25T20:08:25.707Z,52.68
2023-03-25T20:10:52.918Z,52.89
2023-03-25T20:13:19.955Z,52.48
2023-03-25T20:15:48.659Z,52.55
2023-03-25T20:18:16.056Z,52.76
2023-03-25T20:20:43.107Z,52.81
2023-03-25T20:23:10.306Z,52.44
2023-03-25T20:25:38.482Z,52.57
2023-03-25T20:28:06.231Z,52.84
2023-03-25T20:30:35.296Z,53.18
2023-03-25T20:33:02.332Z,53.35
2023-03-25T20:35:30.520Z,53.07
2023-03-25T20:37:57.416Z,52.69
2023-03-25T20:40:33.830Z,52.98
2023-03-25T20:43:08.918Z,52.93
2023-03-25T20:45:36.078Z,52.59
2023-03-25T20:48:02.875Z,52.04
2023-03-25T20:50:30.478Z,52.11
2023-03-25T20:52:57.379Z,52.34
2023-03-25T20:55:24.326Z,51.70
2023-03-25T20:57:52.084Z,52.19
2023-03-25T21:00:19.592Z,52.26
2023-03-25T21:02:47.837Z,52.33
2023-03-25T21:05:14.829Z,52.75
2023-03-25T21:07:41.674Z,52.45
2023-03-25T21:10:09.061Z,52.72
2023-03-25T21:12:43.619Z,52.57
2023-03-25T21:15:13.984Z,52.71
2023-03-25T21:17:41.414Z,53.00
2023-03-25T21:20:09.378Z,52.74
2023-03-25T21:22:43.082Z,52.92
2023-03-25T21:25:10.901Z,53.09
2023-03-25T21:27:39.741Z,52.46
2023-03-25T21:30:10.148Z,52.47
2023-03-25T21:32:41.497Z,52.47
2023-03-25T21:35:09.590Z,52.01
2023-03-25T21:37:40.665Z,51.17
2023-03-25T21:40:11.029Z,51.90
2023-03-25T21:42:41.804Z,51.85
2023-03-25T21:45:11.484Z,51.50
2023-03-25T21:47:38.264Z,51.15
2023-03-25T21:50:10.064Z,51.16
2023-03-25T21:52:38.774Z,50.32
2023-03-25T21:55:06.486Z,50.73
2023-03-25T21:57:38.232Z,50.68
2023-03-25T22:00:07.952Z,50.63
2023-03-25T22:02:39.105Z,50.73
2023-03-25T22:05:08.244Z,51.27
2023-03-25T22:07:34.933Z,51.19
2023-03-25T22:10:01.615Z,51.04
2023-03-25T22:12:28.856Z,51.46
2023-03-25T22:14:55.930Z,51.05
2023-03-25T22:17:22.611Z,51.43
2023-03-25T22:19:50.786Z,51.48
2023-03-25T22:22:21.643Z,51.32
2023-03-25T22:24:49.640Z,51.24
2023-03-25T22:27:16.929Z,51.66
2023-03-25T22:29:43.850Z,51.66
2023-03-25T22:32:12.001Z,51.68
2023-03-25T22:34:42.775Z,51.97
2023-03-25T22:37:11.241Z,52.24
2023-03-25T22:39:39.178Z,52.80
2023-03-25T22:42:06.080Z,52.59
2023-03-25T22:44:33.863Z,52.05
2023-03-25T22:47:00.843Z,52.43
2023-03-25T22:49:27.740Z,52.64
2023-03-25T22:51:55.627Z,52.96
2023-03-25T22:54:25.958Z,53.33
2023-03-25T22:56:52.849Z,53.36
2023-03-25T22:59:20.014Z,53.19
2023-03-25T23:01:46.765Z,53.04
2023-03-25T23:04:13.965Z,53.56
2023-03-25T23:06:41.995Z,53.07
2023-03-25T23:09:10.355Z,53.28
2023-03-25T23:11:38.086Z,53.74
2023-03-25T23:14:10.554Z,53.36
2023-03-25T23:16:39.036Z,53.28
2023-03-25T23:19:06.826Z,52.98
2023-03-25T23:21:36.593Z,52.77
2023-03-25T23:24:04.462Z,52.93
2023-03-25T23:26:40.229Z,53.16
2023-03-25T23:29:09.845Z,52.98
2023-03-25T23:31:41.756Z,53.10
2023-03-25T23:34:13.447Z,53.12
2023-03-25T23:36:41.113Z,53.14
2023-03-25T23:39:11.366Z,53.03
2023-03-25T23:41:42.923Z,52.67
2023-03-25T23:44:10.658Z,53.58
2023-03-25T23:46:37.608Z,53.42
2023-03-25T23:49:04.848Z,52.48
2023-03-25T23:51:39.337Z,52.57
2023-03-25T23:54:08.483Z,52.56
2023-03-25T23:56:36.414Z,52.86
2023-03-25T23:59:06.311Z,52.63
